sensor_id;sensor_type;location;lat;lon;timestamp;P1;durP1;ratioP1;P2;durP2;ratioP2
4758;SDS011;2393;50.560;12.636;2023-10-13T00:02:01;8.97;;;4.90;;
4758;SDS011;2393;50.560;12.636;2023-10-13T00:04:32;10.10;;;4.90;;
4758;SDS011;2393;50.560;12.636;2023-10-13T00:07:03;6.60;;;4.33;;
4758;SDS011;2393;50.560;12.636;2023-10-13T00:09:36;11.33;;;5.33;;
4758;SDS011;2393;50.560;12.636;2023-10-13T00:12:09;11.30;;;5.10;;
4758;SDS011;2393;50.560;12.636;2023-10-13T00:14:40;7.37;;;5.07;;
4758;SDS011;2393;50.560;12.636;2023-10-13T00:17:15;9.53;;;4.40;;
4758;SDS011;2393;50.560;12.636;2023-10-13T00:19:50;6.80;;;4.40;;
4758;SDS011;2393;50.560;12.636;2023-10-13T00:22:20;8.10;;;4.93;;
4758;SDS011;2393;50.560;12.636;2023-10-13T00:24:50;15.40;;;5.30;;
4758;SDS011;2393;50.560;12.636;2023-10-13T00:27:30;7.97;;;4.30;;
4758;SDS011;2393;50.560;12.636;2023-10-13T00:30:02;9.23;;;3.97;;
4758;SDS011;2393;50.560;12.636;2023-10-13T00:32:51;12.57;;;4.97;;
4758;SDS011;2393;50.560;12.636;2023-10-13T00:35:22;12.20;;;5.37;;
4758;SDS011;2393;50.560;12.636;2023-10-13T00:38:03;10.60;;;4.70;;
4758;SDS011;2393;50.560;12.636;2023-10-13T00:40:39;9.40;;;4.40;;
4758;SDS011;2393;50.560;12.636;2023-10-13T00:43:19;8.47;;;5.10;;
4758;SDS011;2393;50.560;12.636;2023-10-13T00:46:05;7.10;;;4.37;;
4758;SDS011;2393;50.560;12.636;2023-10-13T00:48:43;4.73;;;4.27;;
4758;SDS011;2393;50.560;12.636;2023-10-13T00:51:19;11.50;;;4.10;;
4758;SDS011;2393;50.560;12.636;2023-10-13T00:54:03;7.37;;;4.80;;
4758;SDS011;2393;50.560;12.636;2023-10-13T00:56:42;6.50;;;4.37;;
4758;SDS011;2393;50.560;12.636;2023-10-13T00:59:15;9.13;;;3.83;;
4758;SDS011;2393;50.560;12.636;2023-10-13T01:01:50;9.80;;;4.30;;
4758;SDS011;2393;50.560;12.636;2023-10-13T01:04:24;5.80;;;3.87;;
4758;SDS011;2393;50.560;12.636;2023-10-13T01:06:55;7.67;;;3.10;;
4758;SDS011;2393;50.560;12.636;2023-10-13T01:09:29;15.67;;;3.73;;
4758;SDS011;2393;50.560;12.636;2023-10-13T01:12:07;9.37;;;4.10;;
4758;SDS011;2393;50.560;12.636;2023-10-13T01:14:36;4.60;;;3.30;;
4758;SDS011;2393;50.560;12.636;2023-10-13T01:17:11;6.30;;;3.03;;
4758;SDS011;2393;50.560;12.636;2023-10-13T01:19:40;13.80;;;3.97;;
4758;SDS011;2393;50.560;12.636;2023-10-13T01:22:12;5.37;;;3.70;;
4758;SDS011;2393;50.560;12.636;2023-10-13T01:24:45;7.60;;;3.03;;
4758;SDS011;2393;50.560;12.636;2023-10-13T01:27:13;6.40;;;3.23;;
4758;SDS011;2393;50.560;12.636;2023-10-13T01:29:49;5.57;;;4.20;;
4758;SDS011;2393;50.560;12.636;2023-10-13T01:32:22;9.77;;;5.40;;
4758;SDS011;2393;50.560;12.636;2023-10-13T01:34:51;4.80;;;3.57;;
4758;SDS011;2393;50.560;12.636;2023-10-13T01:37:22;5.27;;;3.37;;
4758;SDS011;2393;50.560;12.636;2023-10-13T01:39:55;6.20;;;3.50;;
4758;SDS011;2393;50.560;12.636;2023-10-13T01:42:24;9.83;;;3.60;;
4758;SDS011;2393;50.560;12.636;2023-10-13T01:44:57;3.83;;;3.40;;
4758;SDS011;2393;50.560;12.636;2023-10-13T01:47:33;4.50;;;2.73;;
4758;SDS011;2393;50.560;12.636;2023-10-13T01:50:07;7.30;;;3.13;;
4758;SDS011;2393;50.560;12.636;2023-10-13T01:52:44;6.33;;;4.37;;
4758;SDS011;2393;50.560;12.636;2023-10-13T01:55:24;4.77;;;3.00;;
4758;SDS011;2393;50.560;12.636;2023-10-13T01:57:54;4.07;;;2.87;;
4758;SDS011;2393;50.560;12.636;2023-10-13T02:00:27;5.67;;;3.50;;
4758;SDS011;2393;50.560;12.636;2023-10-13T02:03:01;11.77;;;3.37;;
4758;SDS011;2393;50.560;12.636;2023-10-13T02:05:31;7.30;;;3.90;;
4758;SDS011;2393;50.560;12.636;2023-10-13T02:08:05;5.70;;;4.03;;
4758;SDS011;2393;50.560;12.636;2023-10-13T02:10:36;9.50;;;3.97;;
4758;SDS011;2393;50.560;12.636;2023-10-13T02:13:12;9.53;;;2.80;;
4758;SDS011;2393;50.560;12.636;2023-10-13T02:15:45;8.27;;;3.67;;
4758;SDS011;2393;50.560;12.636;2023-10-13T02:18:14;5.40;;;3.63;;
4758;SDS011;2393;50.560;12.636;2023-10-13T02:20:50;4.87;;;4.13;;
4758;SDS011;2393;50.560;12.636;2023-10-13T02:23:22;7.40;;;3.30;;
4758;SDS011;2393;50.560;12.636;2023-10-13T02:25:53;7.27;;;3.93;;
4758;SDS011;2393;50.560;12.636;2023-10-13T02:28:30;5.20;;;3.30;;
4758;SDS011;2393;50.560;12.636;2023-10-13T02:31:07;5.50;;;3.10;;
4758;SDS011;2393;50.560;12.636;2023-10-13T02:33:35;10.20;;;4.17;;
4758;SDS011;2393;50.560;12.636;2023-10-13T02:36:12;7.10;;;3.30;;
4758;SDS011;2393;50.560;12.636;2023-10-13T02:38:40;11.70;;;4.50;;
4758;SDS011;2393;50.560;12.636;2023-10-13T02:41:15;5.07;;;3.60;;
4758;SDS011;2393;50.560;12.636;2023-10-13T02:43:52;17.07;;;4.90;;
4758;SDS011;2393;50.560;12.636;2023-10-13T02:46:22;6.87;;;4.37;;
4758;SDS011;2393;50.560;12.636;2023-10-13T02:48:55;6.03;;;4.00;;
4758;SDS011;2393;50.560;12.636;2023-10-13T02:51:29;9.83;;;3.70;;
4758;SDS011;2393;50.560;12.636;2023-10-13T02:54:03;7.50;;;4.47;;
4758;SDS011;2393;50.560;12.636;2023-10-13T02:56:43;5.40;;;3.97;;
4758;SDS011;2393;50.560;12.636;2023-10-13T02:59:17;5.30;;;3.90;;
4758;SDS011;2393;50.560;12.636;2023-10-13T03:02:10;5.20;;;3.57;;
4758;SDS011;2393;50.560;12.636;2023-10-13T03:04:56;12.07;;;4.00;;
4758;SDS011;2393;50.560;12.636;2023-10-13T03:07:36;5.90;;;4.27;;
4758;SDS011;2393;50.560;12.636;2023-10-13T03:10:05;6.07;;;4.00;;
4758;SDS011;2393;50.560;12.636;2023-10-13T03:12:40;4.63;;;3.23;;
4758;SDS011;2393;50.560;12.636;2023-10-13T03:15:09;4.10;;;3.10;;
4758;SDS011;2393;50.560;12.636;2023-10-13T03:17:43;3.37;;;3.10;;
4758;SDS011;2393;50.560;12.636;2023-10-13T03:20:15;6.73;;;3.03;;
4758;SDS011;2393;50.560;12.636;2023-10-13T03:22:53;7.03;;;2.73;;
4758;SDS011;2393;50.560;12.636;2023-10-13T03:25:21;5.13;;;3.23;;
4758;SDS011;2393;50.560;12.636;2023-10-13T03:27:58;8.20;;;3.70;;
4758;SDS011;2393;50.560;12.636;2023-10-13T03:30:29;6.40;;;3.30;;
4758;SDS011;2393;50.560;12.636;2023-10-13T03:33:05;5.07;;;3.40;;
4758;SDS011;2393;50.560;12.636;2023-10-13T03:35:41;5.23;;;3.37;;
4758;SDS011;2393;50.560;12.636;2023-10-13T03:38:10;4.27;;;3.17;;
4758;SDS011;2393;50.560;12.636;2023-10-13T03:40:44;5.17;;;3.80;;
4758;SDS011;2393;50.560;12.636;2023-10-13T03:43:18;5.93;;;3.50;;
4758;SDS011;2393;50.560;12.636;2023-10-13T03:45:57;3.10;;;2.53;;
4758;SDS011;2393;50.560;12.636;2023-10-13T03:48:38;4.97;;;3.40;;
4758;SDS011;2393;50.560;12.636;2023-10-13T03:51:24;3.83;;;3.40;;
4758;SDS011;2393;50.560;12.636;2023-10-13T03:53:58;4.00;;;2.93;;
4758;SDS011;2393;50.560;12.636;2023-10-13T03:56:35;11.47;;;3.10;;
4758;SDS011;2393;50.560;12.636;2023-10-13T03:59:10;4.97;;;3.63;;
4758;SDS011;2393;50.560;12.636;2023-10-13T04:01:46;4.93;;;2.80;;
4758;SDS011;2393;50.560;12.636;2023-10-13T04:04:26;3.23;;;2.90;;
4758;SDS011;2393;50.560;12.636;2023-10-13T04:07:04;5.27;;;2.73;;
4758;SDS011;2393;50.560;12.636;2023-10-13T04:10:06;6.47;;;3.20;;
4758;SDS011;2393;50.560;12.636;2023-10-13T04:12:52;5.53;;;3.67;;
4758;SDS011;2393;50.560;12.636;2023-10-13T04:15:40;6.80;;;3.27;;
4758;SDS011;2393;50.560;12.636;2023-10-13T04:18:29;8.47;;;3.63;;
4758;SDS011;2393;50.560;12.636;2023-10-13T04:21:15;3.43;;;2.60;;
4758;SDS011;2393;50.560;12.636;2023-10-13T04:24:07;4.73;;;3.03;;
4758;SDS011;2393;50.560;12.636;2023-10-13T04:26:49;5.03;;;3.00;;
4758;SDS011;2393;50.560;12.636;2023-10-13T04:29:37;4.77;;;3.40;;
4758;SDS011;2393;50.560;12.636;2023-10-13T04:32:39;3.90;;;3.30;;
4758;SDS011;2393;50.560;12.636;2023-10-13T04:35:13;3.27;;;2.83;;
4758;SDS011;2393;50.560;12.636;2023-10-13T04:37:51;4.43;;;2.77;;
4758;SDS011;2393;50.560;12.636;2023-10-13T04:40:25;6.63;;;2.80;;
4758;SDS011;2393;50.560;12.636;2023-10-13T04:43:02;10.20;;;2.80;;
4758;SDS011;2393;50.560;12.636;2023-10-13T04:45:31;4.60;;;3.10;;
4758;SDS011;2393;50.560;12.636;2023-10-13T04:48:25;3.20;;;2.90;;
4758;SDS011;2393;50.560;12.636;2023-10-13T04:50:59;3.90;;;2.37;;
4758;SDS011;2393;50.560;12.636;2023-10-13T04:53:49;6.20;;;2.97;;
4758;SDS011;2393;50.560;12.636;2023-10-13T04:56:40;4.30;;;2.60;;
4758;SDS011;2393;50.560;12.636;2023-10-13T04:59:46;3.20;;;2.80;;
4758;SDS011;2393;50.560;12.636;2023-10-13T05:02:33;6.10;;;2.60;;
4758;SDS011;2393;50.560;12.636;2023-10-13T05:05:23;11.70;;;2.47;;
4758;SDS011;2393;50.560;12.636;2023-10-13T05:08:10;2.97;;;1.90;;
4758;SDS011;2393;50.560;12.636;2023-10-13T05:10:56;3.53;;;2.40;;
4758;SDS011;2393;50.560;12.636;2023-10-13T05:13:57;5.40;;;3.47;;
4758;SDS011;2393;50.560;12.636;2023-10-13T05:16:43;4.73;;;2.67;;
4758;SDS011;2393;50.560;12.636;2023-10-13T05:19:30;3.50;;;2.63;;
4758;SDS011;2393;50.560;12.636;2023-10-13T05:22:18;4.00;;;2.20;;
4758;SDS011;2393;50.560;12.636;2023-10-13T05:25:05;6.57;;;2.43;;
4758;SDS011;2393;50.560;12.636;2023-10-13T05:27:54;10.23;;;2.27;;
4758;SDS011;2393;50.560;12.636;2023-10-13T05:30:58;2.70;;;2.50;;
4758;SDS011;2393;50.560;12.636;2023-10-13T05:33:44;3.00;;;2.10;;
4758;SDS011;2393;50.560;12.636;2023-10-13T05:36:31;3.90;;;2.17;;
4758;SDS011;2393;50.560;12.636;2023-10-13T05:39:19;6.40;;;2.70;;
4758;SDS011;2393;50.560;12.636;2023-10-13T05:42:06;3.43;;;2.43;;
4758;SDS011;2393;50.560;12.636;2023-10-13T05:44:52;2.97;;;2.37;;
4758;SDS011;2393;50.560;12.636;2023-10-13T05:47:47;3.93;;;2.73;;
4758;SDS011;2393;50.560;12.636;2023-10-13T05:50:28;5.37;;;2.73;;
4758;SDS011;2393;50.560;12.636;2023-10-13T05:53:16;3.00;;;1.97;;
4758;SDS011;2393;50.560;12.636;2023-10-13T05:56:03;5.10;;;2.70;;
4758;SDS011;2393;50.560;12.636;2023-10-13T05:58:53;4.90;;;2.70;;
4758;SDS011;2393;50.560;12.636;2023-10-13T06:01:42;3.33;;;2.30;;
4758;SDS011;2393;50.560;12.636;2023-10-13T06:04:28;6.63;;;2.50;;
4758;SDS011;2393;50.560;12.636;2023-10-13T06:07:16;3.33;;;2.27;;
4758;SDS011;2393;50.560;12.636;2023-10-13T06:10:02;8.73;;;2.93;;
4758;SDS011;2393;50.560;12.636;2023-10-13T06:12:50;2.97;;;2.73;;
4758;SDS011;2393;50.560;12.636;2023-10-13T06:15:42;7.40;;;2.83;;
4758;SDS011;2393;50.560;12.636;2023-10-13T06:18:28;12.10;;;3.40;;
4758;SDS011;2393;50.560;12.636;2023-10-13T06:21:15;3.17;;;2.67;;
4758;SDS011;2393;50.560;12.636;2023-10-13T06:24:07;3.90;;;3.13;;
4758;SDS011;2393;50.560;12.636;2023-10-13T06:26:56;4.57;;;2.67;;
4758;SDS011;2393;50.560;12.636;2023-10-13T06:29:48;5.30;;;3.47;;
4758;SDS011;2393;50.560;12.636;2023-10-13T06:32:21;5.27;;;3.10;;
4758;SDS011;2393;50.560;12.636;2023-10-13T06:34:53;4.80;;;3.10;;
4758;SDS011;2393;50.560;12.636;2023-10-13T06:37:27;3.87;;;3.47;;
4758;SDS011;2393;50.560;12.636;2023-10-13T06:40:01;3.23;;;2.50;;
4758;SDS011;2393;50.560;12.636;2023-10-13T06:42:51;7.37;;;3.30;;
4758;SDS011;2393;50.560;12.636;2023-10-13T06:45:23;3.87;;;2.90;;
4758;SDS011;2393;50.560;12.636;2023-10-13T06:47:55;4.40;;;2.90;;
4758;SDS011;2393;50.560;12.636;2023-10-13T06:50:25;3.30;;;3.00;;
4758;SDS011;2393;50.560;12.636;2023-10-13T06:52:57;7.10;;;2.63;;
4758;SDS011;2393;50.560;12.636;2023-10-13T06:55:28;9.80;;;3.53;;
4758;SDS011;2393;50.560;12.636;2023-10-13T06:58:05;4.17;;;2.40;;
4758;SDS011;2393;50.560;12.636;2023-10-13T07:00:42;4.97;;;2.40;;
4758;SDS011;2393;50.560;12.636;2023-10-13T07:03:26;2.73;;;2.53;;
4758;SDS011;2393;50.560;12.636;2023-10-13T07:05:59;3.50;;;2.53;;
4758;SDS011;2393;50.560;12.636;2023-10-13T07:08:28;6.37;;;3.30;;
4758;SDS011;2393;50.560;12.636;2023-10-13T07:11:05;4.40;;;3.00;;
4758;SDS011;2393;50.560;12.636;2023-10-13T07:13:35;5.60;;;2.40;;
4758;SDS011;2393;50.560;12.636;2023-10-13T07:16:08;3.40;;;2.87;;
4758;SDS011;2393;50.560;12.636;2023-10-13T07:18:56;2.83;;;2.63;;
4758;SDS011;2393;50.560;12.636;2023-10-13T07:21:34;11.93;;;3.33;;
4758;SDS011;2393;50.560;12.636;2023-10-13T07:24:15;9.73;;;3.43;;
4758;SDS011;2393;50.560;12.636;2023-10-13T07:26:46;12.40;;;3.70;;
4758;SDS011;2393;50.560;12.636;2023-10-13T07:29:25;4.73;;;3.50;;
4758;SDS011;2393;50.560;12.636;2023-10-13T07:31:57;10.20;;;3.50;;
4758;SDS011;2393;50.560;12.636;2023-10-13T07:34:29;5.80;;;3.03;;
4758;SDS011;2393;50.560;12.636;2023-10-13T07:37:00;12.70;;;3.20;;
4758;SDS011;2393;50.560;12.636;2023-10-13T07:39:37;7.10;;;3.20;;
4758;SDS011;2393;50.560;12.636;2023-10-13T07:42:07;2.77;;;2.53;;
4758;SDS011;2393;50.560;12.636;2023-10-13T07:44:43;6.17;;;2.80;;
4758;SDS011;2393;50.560;12.636;2023-10-13T07:47:15;6.03;;;3.07;;
4758;SDS011;2393;50.560;12.636;2023-10-13T07:49:49;3.63;;;3.33;;
4758;SDS011;2393;50.560;12.636;2023-10-13T07:52:19;8.10;;;3.50;;
4758;SDS011;2393;50.560;12.636;2023-10-13T07:55:04;10.77;;;3.83;;
4758;SDS011;2393;50.560;12.636;2023-10-13T07:57:44;5.70;;;3.23;;
4758;SDS011;2393;50.560;12.636;2023-10-13T08:00:26;8.57;;;2.63;;
4758;SDS011;2393;50.560;12.636;2023-10-13T08:03:15;4.37;;;2.70;;
4758;SDS011;2393;50.560;12.636;2023-10-13T08:06:00;13.03;;;2.83;;
4758;SDS011;2393;50.560;12.636;2023-10-13T08:08:34;3.07;;;2.70;;
4758;SDS011;2393;50.560;12.636;2023-10-13T08:11:05;5.20;;;3.03;;
4758;SDS011;2393;50.560;12.636;2023-10-13T08:13:38;9.47;;;4.10;;
4758;SDS011;2393;50.560;12.636;2023-10-13T08:16:37;7.70;;;3.60;;
4758;SDS011;2393;50.560;12.636;2023-10-13T08:19:23;5.23;;;2.93;;
4758;SDS011;2393;50.560;12.636;2023-10-13T08:21:56;8.73;;;4.30;;
4758;SDS011;2393;50.560;12.636;2023-10-13T08:24:27;11.60;;;3.30;;
4758;SDS011;2393;50.560;12.636;2023-10-13T08:27:19;13.73;;;3.83;;
4758;SDS011;2393;50.560;12.636;2023-10-13T08:30:04;9.13;;;4.77;;
4758;SDS011;2393;50.560;12.636;2023-10-13T08:33:05;8.03;;;3.70;;
4758;SDS011;2393;50.560;12.636;2023-10-13T08:35:47;5.23;;;3.27;;
4758;SDS011;2393;50.560;12.636;2023-10-13T08:38:45;15.63;;;4.93;;
4758;SDS011;2393;50.560;12.636;2023-10-13T08:41:26;9.90;;;3.93;;
4758;SDS011;2393;50.560;12.636;2023-10-13T08:44:21;5.93;;;3.60;;
4758;SDS011;2393;50.560;12.636;2023-10-13T08:47:04;7.40;;;4.40;;
4758;SDS011;2393;50.560;12.636;2023-10-13T08:50:04;11.17;;;3.97;;
4758;SDS011;2393;50.560;12.636;2023-10-13T08:53:03;4.07;;;3.27;;
4758;SDS011;2393;50.560;12.636;2023-10-13T08:55:56;10.30;;;4.80;;
4758;SDS011;2393;50.560;12.636;2023-10-13T08:58:41;14.13;;;5.03;;
4758;SDS011;2393;50.560;12.636;2023-10-13T09:01:32;9.93;;;2.90;;
4758;SDS011;2393;50.560;12.636;2023-10-13T09:04:24;9.40;;;3.50;;
4758;SDS011;2393;50.560;12.636;2023-10-13T09:06:56;10.90;;;3.50;;
4758;SDS011;2393;50.560;12.636;2023-10-13T09:09:44;19.83;;;3.60;;
4758;SDS011;2393;50.560;12.636;2023-10-13T09:12:41;7.90;;;3.43;;
4758;SDS011;2393;50.560;12.636;2023-10-13T09:15:30;9.30;;;3.87;;
4758;SDS011;2393;50.560;12.636;2023-10-13T09:18:23;10.20;;;4.03;;
4758;SDS011;2393;50.560;12.636;2023-10-13T09:21:10;7.50;;;2.73;;
4758;SDS011;2393;50.560;12.636;2023-10-13T09:24:00;9.10;;;3.47;;
4758;SDS011;2393;50.560;12.636;2023-10-13T09:26:50;8.27;;;3.37;;
4758;SDS011;2393;50.560;12.636;2023-10-13T09:29:25;9.73;;;4.37;;
4758;SDS011;2393;50.560;12.636;2023-10-13T09:32:00;16.20;;;3.80;;
4758;SDS011;2393;50.560;12.636;2023-10-13T09:34:30;17.47;;;5.10;;
4758;SDS011;2393;50.560;12.636;2023-10-13T09:37:14;7.20;;;3.43;;
4758;SDS011;2393;50.560;12.636;2023-10-13T09:39:50;10.27;;;3.87;;
4758;SDS011;2393;50.560;12.636;2023-10-13T09:42:22;9.37;;;3.07;;
4758;SDS011;2393;50.560;12.636;2023-10-13T09:44:53;7.20;;;3.73;;
4758;SDS011;2393;50.560;12.636;2023-10-13T09:47:29;15.30;;;3.80;;
4758;SDS011;2393;50.560;12.636;2023-10-13T09:50:07;5.93;;;3.60;;
4758;SDS011;2393;50.560;12.636;2023-10-13T09:52:54;6.10;;;3.63;;
4758;SDS011;2393;50.560;12.636;2023-10-13T09:55:27;7.60;;;4.27;;
4758;SDS011;2393;50.560;12.636;2023-10-13T09:58:03;9.20;;;2.60;;
4758;SDS011;2393;50.560;12.636;2023-10-13T10:00:43;6.00;;;3.27;;
4758;SDS011;2393;50.560;12.636;2023-10-13T10:03:19;6.83;;;3.80;;
4758;SDS011;2393;50.560;12.636;2023-10-13T10:06:02;11.37;;;3.80;;
4758;SDS011;2393;50.560;12.636;2023-10-13T10:08:36;11.00;;;4.13;;
4758;SDS011;2393;50.560;12.636;2023-10-13T10:14:16;4.67;;;2.90;;
4758;SDS011;2393;50.560;12.636;2023-10-13T10:16:56;17.13;;;4.30;;
4758;SDS011;2393;50.560;12.636;2023-10-13T10:19:45;5.97;;;3.00;;
4758;SDS011;2393;50.560;12.636;2023-10-13T10:22:24;6.07;;;3.27;;
4758;SDS011;2393;50.560;12.636;2023-10-13T10:25:01;5.80;;;3.47;;
4758;SDS011;2393;50.560;12.636;2023-10-13T10:27:56;7.93;;;2.80;;
4758;SDS011;2393;50.560;12.636;2023-10-13T10:30:26;6.77;;;3.00;;
4758;SDS011;2393;50.560;12.636;2023-10-13T10:32:56;9.57;;;4.13;;
4758;SDS011;2393;50.560;12.636;2023-10-13T10:35:30;12.50;;;3.50;;
4758;SDS011;2393;50.560;12.636;2023-10-13T10:38:06;9.43;;;3.50;;
4758;SDS011;2393;50.560;12.636;2023-10-13T10:40:49;11.63;;;3.13;;
4758;SDS011;2393;50.560;12.636;2023-10-13T10:43:27;12.97;;;3.27;;
4758;SDS011;2393;50.560;12.636;2023-10-13T10:46:09;6.13;;;3.60;;
4758;SDS011;2393;50.560;12.636;2023-10-13T10:48:44;9.93;;;4.00;;
4758;SDS011;2393;50.560;12.636;2023-10-13T10:51:15;6.40;;;3.60;;
4758;SDS011;2393;50.560;12.636;2023-10-13T10:53:56;6.10;;;3.93;;
4758;SDS011;2393;50.560;12.636;2023-10-13T10:56:27;6.20;;;3.03;;
4758;SDS011;2393;50.560;12.636;2023-10-13T10:59:06;5.77;;;3.33;;
4758;SDS011;2393;50.560;12.636;2023-10-13T11:01:48;9.70;;;3.43;;
4758;SDS011;2393;50.560;12.636;2023-10-13T11:04:21;11.57;;;3.73;;
4758;SDS011;2393;50.560;12.636;2023-10-13T11:07:01;11.87;;;3.60;;
4758;SDS011;2393;50.560;12.636;2023-10-13T11:09:34;7.03;;;3.20;;
4758;SDS011;2393;50.560;12.636;2023-10-13T11:12:13;12.90;;;3.47;;
4758;SDS011;2393;50.560;12.636;2023-10-13T11:14:45;4.10;;;3.60;;
4758;SDS011;2393;50.560;12.636;2023-10-13T11:17:21;5.50;;;3.57;;
4758;SDS011;2393;50.560;12.636;2023-10-13T11:19:53;6.20;;;2.90;;
4758;SDS011;2393;50.560;12.636;2023-10-13T11:22:36;7.30;;;2.70;;
4758;SDS011;2393;50.560;12.636;2023-10-13T11:25:09;9.37;;;3.73;;
4758;SDS011;2393;50.560;12.636;2023-10-13T11:27:40;8.20;;;3.20;;
4758;SDS011;2393;50.560;12.636;2023-10-13T11:30:27;5.83;;;3.60;;
4758;SDS011;2393;50.560;12.636;2023-10-13T11:33:08;10.40;;;3.77;;
4758;SDS011;2393;50.560;12.636;2023-10-13T11:35:48;4.93;;;2.80;;
4758;SDS011;2393;50.560;12.636;2023-10-13T11:38:23;15.43;;;3.80;;
4758;SDS011;2393;50.560;12.636;2023-10-13T11:40:57;8.00;;;3.67;;
4758;SDS011;2393;50.560;12.636;2023-10-13T11:43:48;7.83;;;3.60;;
4758;SDS011;2393;50.560;12.636;2023-10-13T11:46:36;10.30;;;3.73;;
4758;SDS011;2393;50.560;12.636;2023-10-13T11:49:25;7.37;;;3.70;;
4758;SDS011;2393;50.560;12.636;2023-10-13T11:52:06;6.30;;;3.30;;
4758;SDS011;2393;50.560;12.636;2023-10-13T11:54:53;4.40;;;3.17;;
4758;SDS011;2393;50.560;12.636;2023-10-13T11:57:23;14.20;;;3.80;;
4758;SDS011;2393;50.560;12.636;2023-10-13T11:59:59;7.03;;;2.50;;
4758;SDS011;2393;50.560;12.636;2023-10-13T12:02:46;8.00;;;3.17;;
4758;SDS011;2393;50.560;12.636;2023-10-13T12:05:36;5.53;;;3.17;;
4758;SDS011;2393;50.560;12.636;2023-10-13T12:08:33;4.40;;;2.97;;
4758;SDS011;2393;50.560;12.636;2023-10-13T12:11:05;7.37;;;3.60;;
4758;SDS011;2393;50.560;12.636;2023-10-13T12:13:49;12.80;;;3.80;;
4758;SDS011;2393;50.560;12.636;2023-10-13T12:16:20;23.07;;;4.67;;
4758;SDS011;2393;50.560;12.636;2023-10-13T12:19:07;6.90;;;3.87;;
4758;SDS011;2393;50.560;12.636;2023-10-13T12:21:38;5.83;;;3.00;;
4758;SDS011;2393;50.560;12.636;2023-10-13T12:24:10;7.07;;;3.30;;
4758;SDS011;2393;50.560;12.636;2023-10-13T12:26:52;4.03;;;2.67;;
4758;SDS011;2393;50.560;12.636;2023-10-13T12:29:24;7.40;;;2.87;;
4758;SDS011;2393;50.560;12.636;2023-10-13T12:31:56;6.30;;;3.13;;
4758;SDS011;2393;50.560;12.636;2023-10-13T12:34:36;3.80;;;3.23;;
4758;SDS011;2393;50.560;12.636;2023-10-13T12:37:31;6.70;;;3.43;;
4758;SDS011;2393;50.560;12.636;2023-10-13T12:40:17;6.60;;;2.50;;
4758;SDS011;2393;50.560;12.636;2023-10-13T12:43:08;5.60;;;3.90;;
4758;SDS011;2393;50.560;12.636;2023-10-13T12:45:56;8.93;;;3.00;;
4758;SDS011;2393;50.560;12.636;2023-10-13T12:48:43;4.00;;;3.10;;
4758;SDS011;2393;50.560;12.636;2023-10-13T12:51:36;9.70;;;3.03;;
4758;SDS011;2393;50.560;12.636;2023-10-13T12:54:29;7.47;;;3.37;;
4758;SDS011;2393;50.560;12.636;2023-10-13T12:57:10;15.57;;;3.70;;
4758;SDS011;2393;50.560;12.636;2023-10-13T12:59:44;6.53;;;2.50;;
4758;SDS011;2393;50.560;12.636;2023-10-13T13:02:14;5.40;;;3.37;;
4758;SDS011;2393;50.560;12.636;2023-10-13T13:04:50;10.57;;;3.70;;
4758;SDS011;2393;50.560;12.636;2023-10-13T13:07:26;7.20;;;3.30;;
4758;SDS011;2393;50.560;12.636;2023-10-13T13:09:57;7.63;;;2.77;;
4758;SDS011;2393;50.560;12.636;2023-10-13T13:12:27;6.70;;;3.50;;
4758;SDS011;2393;50.560;12.636;2023-10-13T13:15:00;14.53;;;3.90;;
4758;SDS011;2393;50.560;12.636;2023-10-13T13:17:37;8.77;;;3.90;;
4758;SDS011;2393;50.560;12.636;2023-10-13T13:20:10;13.50;;;2.93;;
4758;SDS011;2393;50.560;12.636;2023-10-13T13:22:54;5.00;;;3.53;;
4758;SDS011;2393;50.560;12.636;2023-10-13T13:25:30;5.57;;;4.43;;
4758;SDS011;2393;50.560;12.636;2023-10-13T13:28:00;7.27;;;2.87;;
4758;SDS011;2393;50.560;12.636;2023-10-13T13:30:33;5.50;;;2.43;;
4758;SDS011;2393;50.560;12.636;2023-10-13T13:33:04;8.63;;;3.40;;
4758;SDS011;2393;50.560;12.636;2023-10-13T13:35:39;7.77;;;3.20;;
4758;SDS011;2393;50.560;12.636;2023-10-13T13:38:11;10.70;;;3.20;;
4758;SDS011;2393;50.560;12.636;2023-10-13T13:40:49;8.17;;;3.00;;
4758;SDS011;2393;50.560;12.636;2023-10-13T13:43:21;4.03;;;2.40;;
4758;SDS011;2393;50.560;12.636;2023-10-13T13:46:05;3.40;;;3.03;;
4758;SDS011;2393;50.560;12.636;2023-10-13T13:48:42;9.20;;;2.80;;
4758;SDS011;2393;50.560;12.636;2023-10-13T13:51:20;4.83;;;3.00;;
4758;SDS011;2393;50.560;12.636;2023-10-13T13:53:56;11.83;;;3.30;;
4758;SDS011;2393;50.560;12.636;2023-10-13T13:56:32;4.97;;;3.13;;
4758;SDS011;2393;50.560;12.636;2023-10-13T13:59:08;8.70;;;3.80;;
4758;SDS011;2393;50.560;12.636;2023-10-13T14:01:50;17.23;;;3.10;;
4758;SDS011;2393;50.560;12.636;2023-10-13T14:04:21;9.87;;;2.80;;
4758;SDS011;2393;50.560;12.636;2023-10-13T14:06:59;7.57;;;3.47;;
4758;SDS011;2393;50.560;12.636;2023-10-13T14:09:37;4.30;;;3.00;;
4758;SDS011;2393;50.560;12.636;2023-10-13T14:12:11;8.53;;;3.13;;
4758;SDS011;2393;50.560;12.636;2023-10-13T14:15:06;8.00;;;3.30;;
4758;SDS011;2393;50.560;12.636;2023-10-13T14:17:50;8.80;;;3.40;;
4758;SDS011;2393;50.560;12.636;2023-10-13T14:20:33;6.33;;;2.90;;
4758;SDS011;2393;50.560;12.636;2023-10-13T14:23:07;19.93;;;3.63;;
4758;SDS011;2393;50.560;12.636;2023-10-13T14:25:46;7.90;;;3.60;;
4758;SDS011;2393;50.560;12.636;2023-10-13T14:28:18;8.23;;;3.23;;
4758;SDS011;2393;50.560;12.636;2023-10-13T14:30:47;8.50;;;2.87;;
4758;SDS011;2393;50.560;12.636;2023-10-13T14:33:16;6.10;;;2.63;;
4758;SDS011;2393;50.560;12.636;2023-10-13T14:35:44;7.87;;;3.50;;
4758;SDS011;2393;50.560;12.636;2023-10-13T14:38:13;11.10;;;4.70;;
4758;SDS011;2393;50.560;12.636;2023-10-13T14:40:42;9.47;;;3.37;;
4758;SDS011;2393;50.560;12.636;2023-10-13T14:43:12;5.17;;;2.77;;
4758;SDS011;2393;50.560;12.636;2023-10-13T14:45:40;8.93;;;3.50;;
4758;SDS011;2393;50.560;12.636;2023-10-13T14:48:09;6.53;;;2.67;;
4758;SDS011;2393;50.560;12.636;2023-10-13T14:50:42;6.67;;;3.50;;
4758;SDS011;2393;50.560;12.636;2023-10-13T14:53:11;5.60;;;3.50;;
4758;SDS011;2393;50.560;12.636;2023-10-13T14:55:44;4.77;;;2.80;;
4758;SDS011;2393;50.560;12.636;2023-10-13T14:58:14;9.60;;;3.30;;
4758;SDS011;2393;50.560;12.636;2023-10-13T15:00:43;8.23;;;2.80;;
4758;SDS011;2393;50.560;12.636;2023-10-13T15:03:12;4.33;;;2.27;;
4758;SDS011;2393;50.560;12.636;2023-10-13T15:05:41;6.13;;;3.00;;
4758;SDS011;2393;50.560;12.636;2023-10-13T15:08:10;6.37;;;2.77;;
4758;SDS011;2393;50.560;12.636;2023-10-13T15:10:39;3.97;;;2.57;;
4758;SDS011;2393;50.560;12.636;2023-10-13T15:13:09;8.57;;;3.17;;
4758;SDS011;2393;50.560;12.636;2023-10-13T15:15:39;4.80;;;2.93;;
4758;SDS011;2393;50.560;12.636;2023-10-13T15:18:08;9.70;;;2.93;;
4758;SDS011;2393;50.560;12.636;2023-10-13T15:20:40;6.00;;;2.40;;
4758;SDS011;2393;50.560;12.636;2023-10-13T15:23:10;2.13;;;2.03;;
4758;SDS011;2393;50.560;12.636;2023-10-13T15:25:41;5.60;;;2.87;;
4758;SDS011;2393;50.560;12.636;2023-10-13T15:28:17;10.03;;;3.20;;
4758;SDS011;2393;50.560;12.636;2023-10-13T15:30:49;6.30;;;2.63;;
4758;SDS011;2393;50.560;12.636;2023-10-13T15:33:23;3.80;;;2.57;;
4758;SDS011;2393;50.560;12.636;2023-10-13T15:35:52;11.70;;;2.63;;
4758;SDS011;2393;50.560;12.636;2023-10-13T15:38:20;3.83;;;3.07;;
4758;SDS011;2393;50.560;12.636;2023-10-13T15:40:51;6.47;;;2.80;;
4758;SDS011;2393;50.560;12.636;2023-10-13T15:43:22;11.43;;;3.17;;
4758;SDS011;2393;50.560;12.636;2023-10-13T15:45:52;7.73;;;3.07;;
4758;SDS011;2393;50.560;12.636;2023-10-13T15:48:24;11.30;;;3.33;;
4758;SDS011;2393;50.560;12.636;2023-10-13T15:50:53;6.10;;;2.63;;
4758;SDS011;2393;50.560;12.636;2023-10-13T15:53:21;11.60;;;4.60;;
4758;SDS011;2393;50.560;12.636;2023-10-13T15:55:52;6.40;;;4.40;;
4758;SDS011;2393;50.560;12.636;2023-10-13T15:58:20;6.87;;;3.47;;
4758;SDS011;2393;50.560;12.636;2023-10-13T16:00:54;11.50;;;4.60;;
4758;SDS011;2393;50.560;12.636;2023-10-13T16:03:24;11.30;;;5.27;;
4758;SDS011;2393;50.560;12.636;2023-10-13T16:05:54;12.87;;;6.07;;
4758;SDS011;2393;50.560;12.636;2023-10-13T16:08:22;14.67;;;5.90;;